Time,TemperatureF,DewpointF,PressureIn,WindDirection,WindDirectionDegrees,WindSpeedMPH,WindSpeedGustMPH,Humidity,HourlyPrecipIn,Conditions,Clouds,dailyrainin,SoftwareType,DateUTC
2013-04-02 00:09:00,58.0,22.3,26.73,NE,45,4.0,9.0,25,0.00,,,0.00,Weather View 32 v70,2013-04-02 07:09:00,
2013-04-02 00:19:00,57.0,22.4,26.73,North,360,0.0,9.0,26,0.00,,,0.00,Weather View 32 v70,2013-04-02 07:19:00,
2013-04-02 00:29:00,57.0,22.4,26.73,North,360,0.0,9.0,26,0.00,,,0.00,Weather View 32 v70,2013-04-02 07:29:00,
2013-04-02 00:38:00,57.0,22.4,26.73,North,360,0.0,9.0,26,0.00,,,0.00,Weather View 32 v70,2013-04-02 07:38:00,
2013-04-02 00:49:00,56.0,21.5,26.73,NE,45,0.0,9.0,26,0.00,,,0.00,Weather View 32 v70,2013-04-02 07:49:00,
2013-04-02 00:59:00,56.0,21.5,26.74,NNE,22,0.0,9.0,26,0.00,,,0.00,Weather View 32 v70,2013-04-02 07:59:00,
2013-04-02 01:09:00,56.0,21.5,26.74,NE,45,3.0,8.0,26,0.00,,,0.00,Weather View 32 v70,2013-04-02 08:09:00,
2013-04-02 01:19:00,56.0,21.5,26.74,NNE,22,0.0,8.0,26,0.00,,,0.00,Weather View 32 v70,2013-04-02 08:19:00,
2013-04-02 01:29:00,56.0,21.5,26.73,East,90,0.0,7.0,26,0.00,,,0.00,Weather View 32 v70,2013-04-02 08:29:00,
2013-04-02 01:39:00,56.0,21.5,26.73,East,90,0.0,7.0,26,0.00,,,0.00,Weather View 32 v70,2013-04-02 08:39:00,
2013-04-02 01:49:00,56.0,22.4,26.74,NNE,22,0.0,6.0,27,0.00,,,0.00,Weather View 32 v70,2013-04-02 08:49:00,
2013-04-02 01:59:00,55.0,21.6,26.73,East,90,0.0,6.0,27,0.00,,,0.00,Weather View 32 v70,2013-04-02 08:59:00,
2013-04-02 02:09:00,55.0,21.6,26.73,East,90,0.0,6.0,27,0.00,,,0.00,Weather View 32 v70,2013-04-02 09:09:00,
2013-04-02 02:19:00,54.0,21.6,26.73,North,360,0.0,6.0,28,0.00,,,0.00,Weather View 32 v70,2013-04-02 09:19:00,
2013-04-02 02:29:00,54.0,22.4,26.73,North,360,0.0,6.0,29,0.00,,,0.00,Weather View 32 v70,2013-04-02 09:29:00,
2013-04-02 02:39:00,54.0,22.4,26.74,NNE,22,0.0,6.0,29,0.00,,,0.00,Weather View 32 v70,2013-04-02 09:39:00,
2013-04-02 02:49:00,54.0,21.6,26.74,NNE,22,0.0,6.0,28,0.00,,,0.00,Weather View 32 v70,2013-04-02 09:49:00,
2013-04-02 02:59:00,54.0,21.6,26.74,NNE,22,0.0,6.0,28,0.00,,,0.00,Weather View 32 v70,2013-04-02 09:59:00,
2013-04-02 03:09:00,54.0,21.6,26.74,NNE,22,3.0,7.0,28,0.00,,,0.00,Weather View 32 v70,2013-04-02 10:09:00,
2013-04-02 03:19:00,54.0,21.6,26.74,NNE,22,4.0,8.0,28,0.00,,,0.00,Weather View 32 v70,2013-04-02 10:19:00,
2013-04-02 03:29:00,54.0,21.6,26.73,NE,45,0.0,8.0,28,0.00,,,0.00,Weather View 32 v70,2013-04-02 10:29:00,
2013-04-02 03:39:00,54.0,21.6,26.73,North,360,0.0,8.0,28,0.00,,,0.00,Weather View 32 v70,2013-04-02 10:39:00,
2013-04-02 03:49:00,54.0,22.4,26.73,North,360,3.0,10.0,29,0.00,,,0.00,Weather View 32 v70,2013-04-02 10:49:00,
2013-04-02 03:59:00,53.0,21.5,26.73,NNE,22,4.0,10.0,29,0.00,,,0.00,Weather View 32 v70,2013-04-02 10:59:00,
2013-04-02 04:09:00,53.0,21.5,26.73,North,360,0.0,10.0,29,0.00,,,0.00,Weather View 32 v70,2013-04-02 11:09:00,
2013-04-02 04:19:00,53.0,21.5,26.73,East,90,0.0,10.0,29,0.00,,,0.00,Weather View 32 v70,2013-04-02 11:19:00,
2013-04-02 04:29:00,53.0,23.1,26.73,NE,45,1.0,10.0,31,0.00,,,0.00,Weather View 32 v70,2013-04-02 11:29:00,
2013-04-02 04:39:00,52.0,22.2,26.74,NE,45,5.0,10.0,31,0.00,,,0.00,Weather View 32 v70,2013-04-02 11:39:00,
2013-04-02 04:49:00,52.0,22.2,26.74,SW,225,0.0,10.0,31,0.00,,,0.00,Weather View 32 v70,2013-04-02 11:49:00,
2013-04-02 04:59:00,52.0,22.2,26.73,WSW,247,0.0,9.0,31,0.00,,,0.00,Weather View 32 v70,2013-04-02 11:59:00,
2013-04-02 05:09:00,51.0,21.4,26.74,North,360,0.0,9.0,31,0.00,,,0.00,Weather View 32 v70,2013-04-02 12:09:00,
2013-04-02 05:19:00,51.0,22.1,26.74,North,360,0.0,9.0,32,0.00,,,0.00,Weather View 32 v70,2013-04-02 12:19:00,
2013-04-02 05:29:00,51.0,22.1,26.74,NE,45,0.0,9.0,32,0.00,,,0.00,Weather View 32 v70,2013-04-02 12:29:00,
2013-04-02 05:39:00,51.0,22.1,26.74,East,90,0.0,9.0,32,0.00,,,0.00,Weather View 32 v70,2013-04-02 12:39:00,
2013-04-02 05:49:00,50.0,22.0,26.75,NE,45,0.0,5.0,33,0.00,,,0.00,Weather View 32 v70,2013-04-02 12:49:00,
2013-04-02 05:59:00,50.0,22.0,26.75,NE,45,0.0,5.0,33,0.00,,,0.00,Weather View 32 v70,2013-04-02 12:59:00,
2013-04-02 06:09:00,50.0,22.0,26.75,NE,45,0.0,5.0,33,0.00,,,0.00,Weather View 32 v70,2013-04-02 13:09:00,
2013-04-02 06:19:00,49.0,21.8,26.75,South,180,0.0,5.0,34,0.00,,,0.00,Weather View 32 v70,2013-04-02 13:19:00,
2013-04-02 06:29:00,49.0,22.5,26.76,South,180,0.0,4.0,35,0.00,,,0.00,Weather View 32 v70,2013-04-02 13:29:00,
2013-04-02 06:39:00,48.0,22.3,26.76,NNE,22,0.0,4.0,36,0.00,,,0.00,Weather View 32 v70,2013-04-02 13:39:00,
2013-04-02 06:49:00,48.0,22.9,26.76,NNE,22,0.0,3.0,37,0.00,,,0.00,Weather View 32 v70,2013-04-02 13:49:00,
2013-04-02 06:59:00,48.0,22.9,26.77,NNE,22,0.0,0.0,37,0.00,,,0.00,Weather View 32 v70,2013-04-02 13:59:00,
2013-04-02 07:09:00,49.0,23.8,26.77,North,360,0.0,0.0,37,0.00,,,0.00,Weather View 32 v70,2013-04-02 14:09:00,
2013-04-02 07:19:00,51.0,24.3,26.77,North,360,0.0,0.0,35,0.00,,,0.00,Weather View 32 v70,2013-04-02 14:19:00,
2013-04-02 07:29:00,52.0,24.4,26.77,NE,45,0.0,0.0,34,0.00,,,0.00,Weather View 32 v70,2013-04-02 14:29:00,
2013-04-02 07:39:00,54.0,25.5,26.77,North,360,0.0,0.0,33,0.00,,,0.00,Weather View 32 v70,2013-04-02 14:39:00,
2013-04-02 07:49:00,56.0,26.5,26.76,North,360,0.0,0.0,32,0.00,,,0.00,Weather View 32 v70,2013-04-02 14:49:00,
2013-04-02 07:59:00,58.0,25.9,26.76,WSW,247,0.0,0.0,29,0.00,,,0.00,Weather View 32 v70,2013-04-02 14:59:00,
2013-04-02 08:09:00,60.0,26.7,26.76,NNW,337,0.0,0.0,28,0.00,,,0.00,Weather View 32 v70,2013-04-02 15:09:00,
2013-04-02 08:19:00,61.0,24.9,26.76,NE,45,0.0,0.0,25,0.00,,,0.00,Weather View 32 v70,2013-04-02 15:19:00,
2013-04-02 08:29:00,63.0,24.5,26.75,SE,135,0.0,0.0,23,0.00,,,0.00,Weather View 32 v70,2013-04-02 15:29:00,
2013-04-02 08:39:00,64.0,24.3,26.75,SSW,202,0.0,0.0,22,0.00,,,0.00,Weather View 32 v70,2013-04-02 15:39:00,
2013-04-02 08:49:00,65.0,24.0,26.75,South,180,0.0,6.0,21,0.00,,,0.00,Weather View 32 v70,2013-04-02 15:49:00,
2013-04-02 08:59:00,66.0,23.7,26.74,SSW,202,3.0,6.0,20,0.00,,,0.00,Weather View 32 v70,2013-04-02 15:59:00,
2013-04-02 09:09:00,67.0,24.5,26.74,SW,225,0.0,6.0,20,0.00,,,0.00,Weather View 32 v70,2013-04-02 16:09:00,
2013-04-02 09:19:00,67.0,24.5,26.74,South,180,0.0,7.0,20,0.00,,,0.00,Weather View 32 v70,2013-04-02 16:19:00,
2013-04-02 09:29:00,68.0,25.3,26.74,SE,135,0.0,7.0,20,0.00,,,0.00,Weather View 32 v70,2013-04-02 16:29:00,
2013-04-02 09:39:00,69.0,24.9,26.74,East,90,0.0,10.0,19,0.00,,,0.00,Weather View 32 v70,2013-04-02 16:39:00,
2013-04-02 09:49:00,70.0,24.5,26.73,SSW,202,0.0,10.0,18,0.00,,,0.00,Weather View 32 v70,2013-04-02 16:49:00,
2013-04-02 09:59:00,70.0,24.5,26.73,SSE,157,0.0,10.0,18,0.00,,,0.00,Weather View 32 v70,2013-04-02 16:59:00,
2013-04-02 10:09:00,70.0,23.1,26.73,SE,135,0.0,10.0,17,0.00,,,0.00,Weather View 32 v70,2013-04-02 17:09:00,
2013-04-02 10:19:00,71.0,23.9,26.72,SW,225,3.0,10.0,17,0.00,,,0.00,Weather View 32 v70,2013-04-02 17:19:00,
2013-04-02 10:29:00,71.0,23.9,26.72,ESE,112,0.0,10.0,17,0.00,,,0.00,Weather View 32 v70,2013-04-02 17:29:00,
2013-04-02 10:39:00,72.0,26.1,26.71,SE,135,0.0,10.0,18,0.00,,,0.00,Weather View 32 v70,2013-04-02 17:39:00,
2013-04-02 10:49:00,73.0,24.1,26.71,SSW,202,3.0,10.0,16,0.00,,,0.00,Weather View 32 v70,2013-04-02 17:49:00,
2013-04-02 10:59:00,74.0,24.9,26.70,NW,315,0.0,10.0,16,0.00,,,0.00,Weather View 32 v70,2013-04-02 17:59:00,
2013-04-02 11:09:00,75.0,22.5,26.70,SSW,202,4.0,9.0,14,0.00,,,0.00,Weather View 32 v70,2013-04-02 18:09:00,
2013-04-02 11:19:00,75.0,20.7,26.69,SE,135,0.0,9.0,13,0.00,,,0.00,Weather View 32 v70,2013-04-02 18:19:00,
2013-04-02 11:29:00,76.0,19.6,26.69,South,180,0.0,8.0,12,0.00,,,0.00,Weather View 32 v70,2013-04-02 18:29:00,
2013-04-02 11:39:00,76.0,19.6,26.68,South,180,0.0,12.0,12,0.00,,,0.00,Weather View 32 v70,2013-04-02 18:39:00,
2013-04-02 11:49:00,77.0,22.3,26.68,NW,315,0.0,12.0,13,0.00,,,0.00,Weather View 32 v70,2013-04-02 18:49:00,
2013-04-02 11:59:00,77.0,22.3,26.67,WNW,292,0.0,12.0,13,0.00,,,0.00,Weather View 32 v70,2013-04-02 18:59:00,
2013-04-02 12:09:00,77.0,22.3,26.67,WNW,292,0.0,12.0,13,0.00,,,0.00,Weather View 32 v70,2013-04-02 19:09:00,
2013-04-02 12:19:00,77.0,22.3,26.66,SW,225,0.0,12.0,13,0.00,,,0.00,Weather View 32 v70,2013-04-02 19:19:00,
2013-04-02 12:29:00,78.0,19.1,26.66,SSW,202,4.0,12.0,11,0.00,,,0.00,Weather View 32 v70,2013-04-02 19:29:00,
2013-04-02 12:39:00,78.0,19.1,26.65,SSW,202,4.0,14.0,11,0.00,,,0.00,Weather View 32 v70,2013-04-02 19:39:00,
2013-04-02 12:44:00,78.0,19.1,26.65,SSW,202,4.0,14.0,11,0.00,,,0.00,Weather View 32 v70,2013-04-02 19:44:00,
2013-04-02 12:59:00,78.0,21.2,26.65,SSW,202,10.0,17.0,12,0.00,,,0.00,Weather View 32 v70,2013-04-02 19:59:00,
2013-04-02 13:09:00,76.0,21.5,26.65,SSW,202,0.0,17.0,13,0.00,,,0.00,Weather View 32 v70,2013-04-02 20:09:00,
2013-04-02 13:19:00,76.0,21.5,26.65,SW,225,0.0,17.0,13,0.00,,,0.00,Weather View 32 v70,2013-04-02 20:19:00,
2013-04-02 13:29:00,77.0,20.4,26.65,South,180,7.0,17.0,12,0.00,,,0.00,Weather View 32 v70,2013-04-02 20:29:00,
2013-04-02 13:39:00,78.0,23.1,26.64,ESE,112,0.0,17.0,13,0.00,,,0.00,Weather View 32 v70,2013-04-02 20:39:00,
2013-04-02 13:45:00,78.0,23.1,26.64,ESE,112,0.0,17.0,13,0.00,,,0.00,Weather View 32 v70,2013-04-02 20:45:00,
2013-04-02 13:59:00,78.0,21.2,26.63,WSW,247,0.0,15.0,12,0.00,,,0.00,Weather View 32 v70,2013-04-02 20:59:00,
2013-04-02 14:09:00,78.0,21.2,26.63,WSW,247,0.0,11.0,12,0.00,,,0.00,Weather View 32 v70,2013-04-02 21:09:00,
2013-04-02 14:19:00,79.0,19.9,26.63,South,180,5.0,10.0,11,0.00,,,0.00,Weather View 32 v70,2013-04-02 21:19:00,
2013-04-02 14:29:00,79.0,19.9,26.62,South,180,8.0,10.0,11,0.00,,,0.00,Weather View 32 v70,2013-04-02 21:29:00,
2013-04-02 14:39:00,79.0,19.9,26.62,SE,135,0.0,10.0,11,0.00,,,0.00,Weather View 32 v70,2013-04-02 21:39:00,
2013-04-02 14:45:00,79.0,19.9,26.62,SE,135,0.0,10.0,11,0.00,,,0.00,Weather View 32 v70,2013-04-02 21:45:00,
2013-04-02 14:59:00,80.0,20.7,26.61,SSW,202,2.0,10.0,11,0.00,,,0.00,Weather View 32 v70,2013-04-02 21:59:00,
2013-04-02 15:09:00,80.0,20.7,26.61,SW,225,0.0,10.0,11,0.00,,,0.00,Weather View 32 v70,2013-04-02 22:09:00,
2013-04-02 15:19:00,80.0,20.7,26.61,SW,225,0.0,10.0,11,0.00,,,0.00,Weather View 32 v70,2013-04-02 22:19:00,
2013-04-02 15:29:00,80.0,18.4,26.61,SW,225,6.0,10.0,10,0.00,,,0.00,Weather View 32 v70,2013-04-02 22:29:00,
2013-04-02 15:39:00,79.0,19.9,26.61,South,180,7.0,15.0,11,0.00,,,0.00,Weather View 32 v70,2013-04-02 22:39:00,
2013-04-02 15:49:00,78.0,19.1,26.61,SW,225,3.0,15.0,11,0.00,,,0.00,Weather View 32 v70,2013-04-02 22:49:00,
2013-04-02 15:59:00,78.0,16.9,26.62,SSW,202,4.0,15.0,10,0.00,,,0.00,Weather View 32 v70,2013-04-02 22:59:00,
2013-04-02 16:09:00,78.0,21.2,26.62,SW,225,0.0,15.0,12,0.00,,,0.00,Weather View 32 v70,2013-04-02 23:09:00,
2013-04-02 16:19:00,77.0,18.4,26.62,SSW,202,5.0,15.0,11,0.00,,,0.00,Weather View 32 v70,2013-04-02 23:19:00,
2013-04-02 16:29:00,77.0,20.4,26.63,SSW,202,0.0,15.0,12,0.00,,,0.00,Weather View 32 v70,2013-04-02 23:29:00,
2013-04-02 16:39:00,77.0,18.4,26.63,SSW,202,8.0,12.0,11,0.00,,,0.00,Weather View 32 v70,2013-04-02 23:39:00,
2013-04-02 16:49:00,76.0,19.6,26.63,South,180,4.0,12.0,12,0.00,,,0.00,Weather View 32 v70,2013-04-02 23:49:00,
2013-04-02 16:59:00,75.0,18.8,26.63,South,180,4.0,12.0,12,0.00,,,0.00,Weather View 32 v70,2013-04-02 23:59:00,
2013-04-02 17:09:00,75.0,20.7,26.64,SSW,202,0.0,14.0,13,0.00,,,0.00,Weather View 32 v70,2013-04-03 00:09:00,
2013-04-02 17:19:00,74.0,19.9,26.65,SW,225,5.0,14.0,13,0.00,,,0.00,Weather View 32 v70,2013-04-03 00:19:00,
2013-04-02 17:29:00,74.0,19.9,26.65,South,180,6.0,14.0,13,0.00,,,0.00,Weather View 32 v70,2013-04-03 00:29:00,
2013-04-02 17:39:00,73.0,19.1,26.65,SSW,202,0.0,14.0,13,0.00,,,0.00,Weather View 32 v70,2013-04-03 00:39:00,
2013-04-02 17:47:00,73.0,19.1,26.65,SSW,202,0.0,14.0,13,0.00,,,0.00,Weather View 32 v70,2013-04-03 00:47:00,
2013-04-02 17:59:00,73.0,19.1,26.65,WNW,292,0.0,14.0,13,0.00,,,0.00,Weather View 32 v70,2013-04-03 00:59:00,
2013-04-02 18:09:00,73.0,20.9,26.66,SW,225,0.0,12.0,14,0.00,,,0.00,Weather View 32 v70,2013-04-03 01:09:00,
2013-04-02 18:19:00,72.0,21.7,26.66,NW,315,0.0,12.0,15,0.00,,,0.00,Weather View 32 v70,2013-04-03 01:19:00,
2013-04-02 18:29:00,71.0,22.4,26.67,NNW,337,0.0,11.0,16,0.00,,,0.00,Weather View 32 v70,2013-04-03 01:29:00,
2013-04-02 18:39:00,70.0,21.6,26.67,NNW,337,0.0,7.0,16,0.00,,,0.00,Weather View 32 v70,2013-04-03 01:39:00,
2013-04-02 18:47:00,70.0,21.6,26.67,NNW,337,0.0,7.0,16,0.00,,,0.00,Weather View 32 v70,2013-04-03 01:47:00,
2013-04-02 18:59:00,67.0,22.0,26.68,NNW,337,0.0,7.0,18,0.00,,,0.00,Weather View 32 v70,2013-04-03 01:59:00,
2013-04-02 19:09:00,66.0,21.2,26.69,NNW,337,0.0,7.0,18,0.00,,,0.00,Weather View 32 v70,2013-04-03 02:09:00,
2013-04-02 19:19:00,65.0,21.6,26.69,NNW,337,0.0,0.0,19,0.00,,,0.00,Weather View 32 v70,2013-04-03 02:19:00,
2013-04-02 19:29:00,64.0,22.0,26.70,NNE,22,0.0,0.0,20,0.00,,,0.00,Weather View 32 v70,2013-04-03 02:29:00,
2013-04-02 19:39:00,63.0,21.2,26.71,NNE,22,0.0,0.0,20,0.00,,,0.00,Weather View 32 v70,2013-04-03 02:39:00,
2013-04-02 19:48:00,63.0,21.2,26.71,NNE,22,0.0,0.0,20,0.00,,,0.00,Weather View 32 v70,2013-04-03 02:48:00,
2013-04-02 19:59:00,62.0,21.5,26.71,NNE,22,0.0,6.0,21,0.00,,,0.00,Weather View 32 v70,2013-04-03 02:59:00,
2013-04-02 20:09:00,62.0,22.6,26.72,NNE,22,3.0,7.0,22,0.00,,,0.00,Weather View 32 v70,2013-04-03 03:09:00,
2013-04-02 20:19:00,61.0,22.9,26.72,North,360,0.0,7.0,23,0.00,,,0.00,Weather View 32 v70,2013-04-03 03:19:00,
2013-04-02 20:29:00,61.0,22.9,26.72,NE,45,4.0,9.0,23,0.00,,,0.00,Weather View 32 v70,2013-04-03 03:29:00,
2013-04-02 20:39:00,61.0,22.9,26.73,NNE,22,4.0,9.0,23,0.00,,,0.00,Weather View 32 v70,2013-04-03 03:39:00,
2013-04-02 20:49:00,61.0,22.9,26.73,NNE,22,4.0,9.0,23,0.00,,,0.00,Weather View 32 v70,2013-04-03 03:49:00,
2013-04-02 20:59:00,61.0,22.9,26.73,North,360,0.0,9.0,23,0.00,,,0.00,Weather View 32 v70,2013-04-03 03:59:00,
2013-04-02 21:09:00,60.0,23.0,26.74,NE,45,0.0,9.0,24,0.00,,,0.00,Weather View 32 v70,2013-04-03 04:09:00,
2013-04-02 21:19:00,60.0,23.0,26.74,NE,45,0.0,9.0,24,0.00,,,0.00,Weather View 32 v70,2013-04-03 04:19:00,
2013-04-02 21:29:00,59.0,22.2,26.74,NE,45,0.0,8.0,24,0.00,,,0.00,Weather View 32 v70,2013-04-03 04:29:00,
2013-04-02 21:39:00,59.0,22.2,26.75,NNE,22,0.0,8.0,24,0.00,,,0.00,Weather View 32 v70,2013-04-03 04:39:00,
2013-04-02 21:49:00,59.0,22.2,26.75,ENE,67,0.0,8.0,24,0.00,,,0.00,Weather View 32 v70,2013-04-03 04:49:00,
2013-04-02 21:59:00,59.0,23.2,26.76,East,90,0.0,8.0,25,0.00,,,0.00,Weather View 32 v70,2013-04-03 04:59:00,
2013-04-02 22:09:00,58.0,23.2,26.76,NNE,22,0.0,8.0,26,0.00,,,0.00,Weather View 32 v70,2013-04-03 05:09:00,
2013-04-02 22:19:00,57.0,22.4,26.76,NE,45,0.0,8.0,26,0.00,,,0.00,Weather View 32 v70,2013-04-03 05:19:00,
2013-04-02 22:29:00,57.0,22.4,26.76,NE,45,0.0,5.0,26,0.00,,,0.00,Weather View 32 v70,2013-04-03 05:29:00,
2013-04-02 22:39:00,57.0,22.4,26.76,NE,45,0.0,0.0,26,0.00,,,0.00,Weather View 32 v70,2013-04-03 05:39:00,
2013-04-02 22:49:00,57.0,22.4,26.77,NE,45,0.0,0.0,26,0.00,,,0.00,Weather View 32 v70,2013-04-03 05:49:00,
2013-04-02 22:59:00,57.0,23.3,26.77,NW,315,0.0,0.0,27,0.00,,,0.00,Weather View 32 v70,2013-04-03 05:59:00,
2013-04-02 23:09:00,56.0,23.3,26.77,NNW,337,0.0,0.0,28,0.00,,,0.00,Weather View 32 v70,2013-04-03 06:09:00,
2013-04-02 23:19:00,56.0,23.3,26.77,NNW,337,0.0,0.0,28,0.00,,,0.00,Weather View 32 v70,2013-04-03 06:19:00,
2013-04-02 23:29:00,55.0,22.4,26.77,NNW,337,0.0,0.0,28,0.00,,,0.00,Weather View 32 v70,2013-04-03 06:29:00,
2013-04-02 23:39:00,55.0,23.3,26.77,ENE,67,0.0,0.0,29,0.00,,,0.00,Weather View 32 v70,2013-04-03 06:39:00,
2013-04-02 23:49:00,55.0,23.3,26.77,SSW,202,0.0,0.0,29,0.00,,,0.00,Weather View 32 v70,2013-04-03 06:49:00,
2013-04-02 23:59:00,55.0,23.3,26.77,NNW,337,0.0,0.0,29,0.00,,,0.00,Weather View 32 v70,2013-04-03 06:59:00,